Time;durP1;ratioP1;P1;durP2;ratioP2;P2;SDS_P1;SDS_P2;PMS_P1;PMS_P2;Temp;Humidity;BMP_temperature;BMP_pressure;BME280_temperature;BME280_humidity;BME280_pressure;Samples;Min_cycle;Max_cycle;Signal;HPM_P1;HPM_P2
2023/04/19 00:00:20;;;;;;;5.80;4.63;;;20.80;62.10;;;;;;4988990;28;88635;-86
2023/04/19 00:02:48;;;;;;;5.75;4.50;;;20.80;62.10;;;;;;4991622;28;87375;-86
2023/04/19 00:05:13;;;;;;;4.43;3.95;;;20.80;62.10;;;;;;4991784;28;87767;-87
2023/04/19 00:07:39;;;;;;;4.93;4.10;;;20.70;62.00;;;;;;4991931;28;92384;-86
2023/04/19 00:10:06;;;;;;;5.43;4.68;;;20.70;61.90;;;;;;4990853;28;87265;-87
2023/04/19 00:12:32;;;;;;;5.50;4.50;;;20.70;61.90;;;;;;4990401;28;87526;-86
2023/04/19 00:14:57;;;;;;;6.47;4.75;;;20.70;61.90;;;;;;5004231;28;90679;-86
2023/04/19 00:17:26;;;;;;;4.85;4.13;;;20.70;61.90;;;;;;4989714;28;87801;-86
2023/04/19 00:19:51;;;;;;;5.00;4.38;;;20.70;62.00;;;;;;4990620;28;87847;-86
2023/04/19 00:22:17;;;;;;;5.10;4.45;;;20.70;62.00;;;;;;4990700;28;87270;-86
2023/04/19 00:24:42;;;;;;;4.68;4.07;;;20.70;62.10;;;;;;4988840;28;88760;-86
2023/04/19 00:27:08;;;;;;;4.95;4.43;;;20.70;62.00;;;;;;4988450;28;89218;-86
2023/04/19 00:29:33;;;;;;;4.55;4.15;;;20.70;62.00;;;;;;4992835;28;89830;-86
2023/04/19 00:31:59;;;;;;;4.43;3.97;;;20.70;62.20;;;;;;4995347;28;87420;-86
2023/04/19 00:34:25;;;;;;;5.18;3.85;;;20.70;62.00;;;;;;4995527;28;87476;-86
2023/04/19 00:36:50;;;;;;;6.00;4.45;;;20.70;62.20;;;;;;4993009;28;88337;-86
2023/04/19 00:39:16;;;;;;;4.43;4.03;;;20.70;62.20;;;;;;4993073;28;87697;-86
2023/04/19 00:41:42;;;;;;;4.85;4.32;;;20.70;62.20;;;;;;4993888;28;87494;-86
2023/04/19 00:44:08;;;;;;;5.05;4.50;;;20.70;62.20;;;;;;5011422;28;90806;-86
2023/04/19 00:46:35;;;;;;;4.82;4.32;;;20.60;62.10;;;;;;4991093;28;89913;-86
2023/04/19 00:52:26;;;;;;;4.70;4.22;;;20.60;62.20;;;;;;4994579;28;86930;-85
2023/04/19 00:54:53;;;;;;;6.95;4.25;;;20.60;62.30;;;;;;4991411;28;87005;-86
2023/04/19 00:57:20;;;;;;;4.50;4.10;;;20.60;62.20;;;;;;4993790;28;88400;-86
2023/04/19 00:59:46;;;;;;;4.53;4.13;;;20.60;62.20;;;;;;4993805;28;86943;-86
2023/04/19 01:02:12;;;;;;;5.22;4.28;;;20.60;62.10;;;;;;4992248;28;87289;-86
2023/04/19 01:04:38;;;;;;;4.85;4.18;;;20.60;62.30;;;;;;4993041;28;88462;-86
2023/04/19 01:07:04;;;;;;;5.15;4.53;;;20.60;62.20;;;;;;4993502;28;88652;-86
2023/04/19 01:09:30;;;;;;;5.18;4.20;;;20.60;62.20;;;;;;4992180;28;87274;-85
2023/04/19 01:11:55;;;;;;;6.82;4.75;;;20.60;63.00;;;;;;4991407;28;87509;-87
2023/04/19 01:14:21;;;;;;;5.38;4.38;;;20.60;62.20;;;;;;4991744;28;89355;-86
2023/04/19 01:16:47;;;;;;;4.03;3.63;;;20.60;62.20;;;;;;4994133;28;88818;-86
2023/04/19 01:19:12;;;;;;;4.43;4.03;;;20.60;62.10;;;;;;4992922;28;87429;-86
2023/04/19 01:21:39;;;;;;;5.72;4.40;;;20.50;62.30;;;;;;4989849;28;86864;-87
2023/04/19 01:24:05;;;;;;;4.43;4.03;;;20.50;62.30;;;;;;5008782;28;91735;-86
2023/04/19 01:26:30;;;;;;;4.03;3.72;;;20.50;62.60;;;;;;4992333;28;90675;-85
2023/04/19 01:28:56;;;;;;;4.72;4.10;;;20.50;62.50;;;;;;4993101;28;86896;-86
2023/04/19 01:31:21;;;;;;;4.43;4.03;;;20.50;62.50;;;;;;4994472;28;87492;-86
2023/04/19 01:33:47;;;;;;;4.32;3.92;;;20.50;62.50;;;;;;4991250;28;88233;-87
2023/04/19 01:36:13;;;;;;;4.95;4.20;;;20.50;62.60;;;;;;4992778;28;87747;-86
2023/04/19 01:38:38;;;;;;;4.20;3.80;;;20.50;62.30;;;;;;4992637;28;87938;-85
2023/04/19 01:41:04;;;;;;;10.05;4.53;;;20.50;62.30;;;;;;4994226;28;87593;-86
2023/04/19 01:43:30;;;;;;;3.95;3.65;;;20.50;62.30;;;;;;4990938;28;88990;-86
2023/04/19 01:45:55;;;;;;;4.15;3.75;;;20.50;62.40;;;;;;4992943;28;87849;-86
2023/04/19 01:48:21;;;;;;;4.20;3.80;;;20.50;62.50;;;;;;4993289;28;87602;-87
2023/04/19 01:50:46;;;;;;;4.97;4.47;;;20.50;62.30;;;;;;4991537;28;87424;-86
2023/04/19 01:53:12;;;;;;;5.20;4.65;;;20.50;62.70;;;;;;4994770;28;88678;-86
2023/04/19 01:55:37;;;;;;;4.82;4.20;;;20.50;62.40;;;;;;4992912;28;88199;-86
2023/04/19 01:58:03;;;;;;;5.38;4.88;;;20.40;62.60;;;;;;4994338;28;87551;-86
2023/04/19 02:00:29;;;;;;;5.00;4.40;;;20.50;62.50;;;;;;4991010;28;87503;-85
2023/04/19 02:02:54;;;;;;;4.55;4.15;;;20.40;62.40;;;;;;4994065;28;89507;-87
2023/04/19 02:05:20;;;;;;;5.75;4.18;;;20.40;62.40;;;;;;4994051;28;88323;-86
2023/04/19 02:07:46;;;;;;;4.22;3.83;;;20.40;62.50;;;;;;4992667;28;87268;-86
2023/04/19 02:10:11;;;;;;;4.50;3.97;;;20.40;62.50;;;;;;4992508;28;87155;-85
2023/04/19 02:12:37;;;;;;;4.47;4.07;;;20.40;62.40;;;;;;4992137;28;87190;-85
2023/04/19 02:15:03;;;;;;;4.25;3.85;;;20.40;62.50;;;;;;4992751;28;87744;-87
2023/04/19 02:17:29;;;;;;;4.72;4.10;;;20.40;62.60;;;;;;4991856;28;87458;-86
2023/04/19 02:23:22;;;;;;;5.07;4.13;;;20.40;63.00;;;;;;4993274;28;91583;-86
2023/04/19 02:25:48;;;;;;;5.47;4.63;;;20.40;62.40;;;;;;4994752;28;88364;-85
2023/04/19 02:28:13;;;;;;;4.38;3.95;;;20.40;62.70;;;;;;4990876;28;88341;-86
2023/04/19 02:30:39;;;;;;;4.30;3.90;;;20.40;62.40;;;;;;4990656;28;87707;-86
2023/04/19 02:33:05;;;;;;;4.20;3.80;;;20.40;62.30;;;;;;4989242;28;88618;-86
2023/04/19 02:35:30;;;;;;;4.40;4.00;;;20.30;62.30;;;;;;4992030;28;87660;-86
2023/04/19 02:37:56;;;;;;;4.53;4.07;;;20.30;62.40;;;;;;4990548;28;87431;-86
2023/04/19 02:40:22;;;;;;;4.40;3.90;;;20.30;62.30;;;;;;4989274;28;87395;-86
2023/04/19 02:42:48;;;;;;;4.40;4.00;;;20.30;62.20;;;;;;4991312;28;88771;-87
2023/04/19 02:45:13;;;;;;;4.43;4.03;;;20.30;62.40;;;;;;4991828;28;88400;-85
2023/04/19 02:47:39;;;;;;;4.32;3.92;;;20.30;62.30;;;;;;5007406;28;86998;-86
2023/04/19 02:50:08;;;;;;;4.93;4.43;;;20.30;62.20;;;;;;5007902;28;90957;-85
2023/04/19 02:52:34;;;;;;;5.07;3.97;;;20.30;62.30;;;;;;4989732;28;88640;-86
2023/04/19 02:54:59;;;;;;;4.20;3.80;;;20.30;62.40;;;;;;5006539;28;91769;-86
2023/04/19 02:57:25;;;;;;;6.47;4.32;;;20.30;62.40;;;;;;4991318;28;87620;-86
2023/04/19 02:59:50;;;;;;;4.40;4.00;;;20.30;62.50;;;;;;4992007;28;87107;-86
2023/04/19 03:02:16;;;;;;;4.20;3.80;;;20.30;62.40;;;;;;4991974;28;87672;-85
2023/04/19 03:04:42;;;;;;;4.88;4.40;;;20.30;62.40;;;;;;4991876;28;88186;-85
2023/04/19 03:07:09;;;;;;;4.43;4.00;;;20.20;62.10;;;;;;4991822;28;87280;-87
2023/04/19 03:09:34;;;;;;;4.40;4.00;;;20.20;62.30;;;;;;5007086;28;95270;-85
2023/04/19 03:12:00;;;;;;;4.47;4.07;;;20.30;62.40;;;;;;4992433;28;88430;-86
2023/04/19 03:14:26;;;;;;;4.43;3.97;;;20.20;62.40;;;;;;4990116;28;87712;-85
2023/04/19 03:16:56;;;;;;;4.55;4.10;;;20.20;62.40;;;;;;4991814;28;88215;-86
2023/04/19 03:19:22;;;;;;;4.07;3.78;;;20.20;62.50;;;;;;5005916;28;89956;-85
2023/04/19 03:21:48;;;;;;;3.67;3.38;;;20.20;62.40;;;;;;4991049;28;88330;-86
2023/04/19 03:24:13;;;;;;;3.92;3.63;;;20.20;62.40;;;;;;4991505;28;87560;-85
2023/04/19 03:26:39;;;;;;;3.85;3.55;;;20.20;62.30;;;;;;4989045;28;87724;-86
2023/04/19 03:29:04;;;;;;;4.50;4.07;;;20.20;62.40;;;;;;5007630;28;88796;-86
2023/04/19 03:31:39;;;;;;;4.30;3.92;;;20.20;62.50;;;;;;4991360;28;88705;-86
2023/04/19 03:34:05;;;;;;;4.60;3.92;;;20.20;62.40;;;;;;5007280;28;91520;-86
2023/04/19 03:36:31;;;;;;;4.68;4.28;;;20.20;62.60;;;;;;4990990;28;87215;-86
2023/04/19 03:38:56;;;;;;;4.18;3.78;;;20.20;62.50;;;;;;4989052;28;87184;-86
2023/04/19 03:41:26;;;;;;;4.03;3.70;;;20.20;62.50;;;;;;4991747;28;88685;-86
2023/04/19 03:43:51;;;;;;;4.32;3.92;;;20.10;62.40;;;;;;4990373;28;90670;-86
2023/04/19 03:46:17;;;;;;;4.63;4.10;;;20.10;62.40;;;;;;5006619;28;86948;-85
2023/04/19 03:48:43;;;;;;;4.22;3.83;;;20.10;62.30;;;;;;4991893;28;88299;-86
2023/04/19 03:51:08;;;;;;;4.05;3.53;;;20.20;62.50;;;;;;4990012;28;88967;-87
2023/04/19 03:53:35;;;;;;;4.25;3.85;;;20.10;62.40;;;;;;4988101;28;90272;-87
2023/04/19 03:56:00;;;;;;;4.75;4.20;;;20.10;62.30;;;;;;5005758;28;87436;-87
2023/04/19 03:58:36;;;;;;;4.22;3.83;;;20.10;62.30;;;;;;4990471;28;87452;-87
2023/04/19 04:01:02;;;;;;;3.90;3.60;;;20.10;62.50;;;;;;4991102;28;87078;-86
2023/04/19 04:03:27;;;;;;;4.20;3.80;;;20.10;62.50;;;;;;4988342;28;87753;-87
2023/04/19 04:05:53;;;;;;;4.13;3.80;;;20.10;62.60;;;;;;5004823;28;88021;-87
2023/04/19 04:08:19;;;;;;;4.10;3.70;;;20.10;62.50;;;;;;5005192;28;89569;-85
2023/04/19 04:10:44;;;;;;;4.15;3.78;;;20.10;63.20;;;;;;4990394;28;89500;-86
2023/04/19 04:13:10;;;;;;;4.50;4.10;;;20.10;62.50;;;;;;4988541;28;89967;-86
2023/04/19 04:15:35;;;;;;;3.72;3.42;;;20.10;62.50;;;;;;5005457;28;87168;-86
2023/04/19 04:18:01;;;;;;;3.83;3.53;;;20.10;62.30;;;;;;5004560;28;88559;-87
2023/04/19 04:20:27;;;;;;;4.43;4.03;;;20.10;62.50;;;;;;5005962;28;90943;-86
2023/04/19 04:22:52;;;;;;;4.60;4.20;;;20.10;62.20;;;;;;4991772;28;88165;-87
2023/04/19 04:25:18;;;;;;;3.85;3.55;;;20.10;62.40;;;;;;4990492;28;87163;-86
2023/04/19 04:27:44;;;;;;;4.60;4.20;;;20.10;62.40;;;;;;4988335;28;89330;-86
2023/04/19 04:30:11;;;;;;;4.22;3.83;;;20.00;62.30;;;;;;4989874;28;89490;-86
2023/04/19 04:32:37;;;;;;;4.38;3.97;;;20.00;62.30;;;;;;4990003;28;89247;-87
2023/04/19 04:35:06;;;;;;;4.10;3.80;;;20.00;62.50;;;;;;4990072;28;86893;-87
2023/04/19 04:37:33;;;;;;;4.55;4.15;;;20.00;62.50;;;;;;5004491;28;90365;-87
2023/04/19 04:40:00;;;;;;;3.95;3.65;;;20.00;62.40;;;;;;4990709;28;87255;-86
2023/04/19 04:42:26;;;;;;;4.72;4.20;;;20.00;62.30;;;;;;4990782;28;87342;-88
2023/04/19 04:44:52;;;;;;;4.22;3.92;;;20.00;62.30;;;;;;4990376;28;86963;-87
2023/04/19 04:47:19;;;;;;;4.75;3.97;;;20.00;62.30;;;;;;4989406;28;88614;-88
2023/04/19 04:49:45;;;;;;;4.75;3.88;;;20.00;62.30;;;;;;4990355;28;87781;-87
2023/04/19 04:52:11;;;;;;;4.20;3.78;;;20.00;62.10;;;;;;4988516;28;88039;-88
2023/04/19 04:54:37;;;;;;;3.92;3.63;;;20.00;62.20;;;;;;5005993;28;88398;-88
2023/04/19 04:57:02;;;;;;;3.95;3.65;;;20.00;62.10;;;;;;4990850;28;87246;-87
2023/04/19 04:59:28;;;;;;;3.90;3.60;;;20.00;62.30;;;;;;4988352;28;88108;-88
2023/04/19 05:01:54;;;;;;;4.50;4.10;;;20.00;62.10;;;;;;4989833;28;87244;-87
2023/04/19 05:04:19;;;;;;;4.57;4.18;;;20.00;62.30;;;;;;5004488;28;87639;-88
2023/04/19 05:06:45;;;;;;;3.97;3.67;;;20.00;62.10;;;;;;5005131;28;89639;-87
2023/04/19 05:09:11;;;;;;;4.38;3.97;;;20.00;62.20;;;;;;4988881;28;88671;-87
2023/04/19 05:11:36;;;;;;;4.32;3.92;;;20.00;62.20;;;;;;5005849;28;91966;-87
2023/04/19 05:14:17;;;;;;;4.32;3.92;;;20.00;62.30;;;;;;5007939;28;86905;-87
2023/04/19 05:16:43;;;;;;;4.57;3.72;;;20.00;62.20;;;;;;5010082;28;93928;-87
2023/04/19 05:19:08;;;;;;;4.20;3.80;;;20.00;62.30;;;;;;4991509;28;89296;-87
2023/04/19 05:21:34;;;;;;;4.15;3.67;;;20.00;62.30;;;;;;4992125;28;91022;-88
2023/04/19 05:24:00;;;;;;;4.30;3.90;;;19.90;62.30;;;;;;4992492;28;87108;-88
2023/04/19 05:26:25;;;;;;;5.10;4.22;;;19.90;62.10;;;;;;5006526;28;90632;-87
2023/04/19 05:28:51;;;;;;;4.43;3.97;;;19.90;62.00;;;;;;4991953;28;91322;-87
2023/04/19 05:31:17;;;;;;;4.25;3.85;;;19.90;62.10;;;;;;4991630;28;88158;-87
2023/04/19 05:33:42;;;;;;;4.05;3.65;;;19.90;62.30;;;;;;5009369;28;87580;-87
2023/04/19 05:36:08;;;;;;;4.65;4.22;;;20.00;62.00;;;;;;4993121;28;87389;-88
2023/04/19 05:38:34;;;;;;;4.47;4.07;;;19.90;62.00;;;;;;4993381;28;87558;-88
2023/04/19 05:41:00;;;;;;;4.40;4.00;;;19.90;62.10;;;;;;4992918;28;87314;-88
2023/04/19 05:43:25;;;;;;;4.13;3.72;;;19.90;61.90;;;;;;4989506;28;88481;-88
2023/04/19 05:45:51;;;;;;;4.28;3.85;;;19.90;61.90;;;;;;5009275;28;88194;-87
2023/04/19 05:48:17;;;;;;;4.30;3.90;;;20.00;62.00;;;;;;5007097;28;90797;-88
2023/04/19 05:50:42;;;;;;;3.88;3.50;;;20.00;61.50;;;;;;5009098;28;90342;-87
2023/04/19 05:53:08;;;;;;;4.32;3.92;;;20.00;61.80;;;;;;4992411;28;86912;-86
2023/04/19 05:55:34;;;;;;;4.28;3.88;;;20.00;61.80;;;;;;5006645;28;90974;-87
2023/04/19 05:57:59;;;;;;;6.18;3.97;;;20.10;61.70;;;;;;4992220;28;88598;-87
2023/04/19 06:00:27;;;;;;;4.25;3.85;;;20.10;61.70;;;;;;5006709;28;88724;-89
2023/04/19 06:02:52;;;;;;;5.10;4.60;;;20.30;61.80;;;;;;5007571;28;87245;-87
2023/04/19 06:05:18;;;;;;;5.05;4.55;;;20.50;61.60;;;;;;5006875;28;90703;-87
2023/04/19 06:07:44;;;;;;;5.13;4.63;;;20.60;61.20;;;;;;4992693;28;88728;-88
2023/04/19 06:10:10;;;;;;;5.00;4.50;;;20.70;61.20;;;;;;4990785;28;89978;-85
2023/04/19 06:12:35;;;;;;;5.10;4.60;;;20.80;61.10;;;;;;4991970;28;87276;-87
2023/04/19 06:15:01;;;;;;;7.70;5.30;;;20.80;61.10;;;;;;4992377;28;87321;-86
2023/04/19 06:17:26;;;;;;;6.05;5.43;;;20.90;60.90;;;;;;4991652;28;88486;-88
2023/04/19 06:19:57;;;;;;;5.95;5.20;;;20.90;61.20;;;;;;4993283;28;88954;-86
2023/04/19 06:22:23;;;;;;;6.00;5.25;;;20.90;61.20;;;;;;5008350;28;86926;-87
2023/04/19 06:24:49;;;;;;;7.40;5.28;;;20.90;61.20;;;;;;4991130;28;87552;-84
2023/04/19 06:27:15;;;;;;;6.20;4.93;;;20.90;62.40;;;;;;5006971;28;89077;-84
2023/04/19 06:29:41;;;;;;;4.90;4.40;;;20.90;61.60;;;;;;4991370;28;89027;-85
2023/04/19 06:32:08;;;;;;;5.80;5.20;;;20.90;61.80;;;;;;5009485;28;87888;-85
2023/04/19 06:34:34;;;;;;;6.10;5.40;;;20.80;61.90;;;;;;5009991;28;87632;-84
2023/04/19 06:36:59;;;;;;;7.47;5.65;;;20.80;62.30;;;;;;5007698;28;88824;-84
2023/04/19 06:39:26;;;;;;;5.43;4.93;;;20.70;62.20;;;;;;5008093;28;87963;-85
2023/04/19 06:41:51;;;;;;;6.15;5.47;;;20.70;62.40;;;;;;5007462;28;87466;-86
2023/04/19 06:44:18;;;;;;;5.55;4.97;;;20.80;62.30;;;;;;5010258;28;87399;-87
2023/04/19 06:46:44;;;;;;;7.10;4.85;;;20.80;62.10;;;;;;5011367;28;91174;-85
2023/04/19 06:49:15;;;;;;;5.07;4.40;;;20.70;62.40;;;;;;4993988;28;89962;-86
2023/04/19 06:51:41;;;;;;;5.30;4.70;;;20.70;62.70;;;;;;5010563;28;87398;-86
2023/04/19 06:54:06;;;;;;;6.85;5.00;;;20.60;62.50;;;;;;5011446;28;87334;-87
2023/04/19 06:56:46;;;;;;;5.90;5.30;;;20.60;62.50;;;;;;4984275;28;92695;-87
2023/04/19 06:59:13;;;;;;;6.00;5.25;;;20.60;62.60;;;;;;4993357;28;90699;-87
2023/04/19 07:01:39;;;;;;;5.65;4.82;;;20.60;62.60;;;;;;5009026;28;87087;-87
2023/04/19 07:04:06;;;;;;;6.85;4.85;;;20.60;62.40;;;;;;5002591;28;89203;-83
2023/04/19 07:06:33;;;;;;;6.38;4.95;;;20.60;62.80;;;;;;4990200;28;88051;-86
2023/04/19 07:08:58;;;;;;;6.22;4.57;;;20.60;62.70;;;;;;4991263;28;87467;-86
2023/04/19 07:11:24;;;;;;;6.57;5.05;;;20.60;62.80;;;;;;5009654;28;87278;-86
2023/04/19 07:13:50;;;;;;;5.95;5.30;;;20.60;63.40;;;;;;4999010;28;89835;-86
2023/04/19 07:16:17;;;;;;;7.88;5.07;;;20.60;62.70;;;;;;4991983;28;88426;-87
2023/04/19 07:18:43;;;;;;;8.40;5.57;;;20.60;62.80;;;;;;4990961;28;90957;-86
2023/04/19 07:21:09;;;;;;;7.72;5.25;;;20.70;62.50;;;;;;4990232;28;88397;-84
2023/04/19 07:23:35;;;;;;;7.07;5.30;;;20.80;62.50;;;;;;4991749;28;87040;-85
2023/04/19 07:26:01;;;;;;;7.53;5.38;;;20.90;62.30;;;;;;4993738;28;88263;-85
2023/04/19 07:28:30;;;;;;;9.70;6.00;;;20.90;62.20;;;;;;4992951;28;88335;-86
2023/04/19 07:30:56;;;;;;;9.88;5.50;;;20.90;62.20;;;;;;4988579;28;87414;-87
2023/04/19 07:33:23;;;;;;;8.77;5.50;;;20.90;62.10;;;;;;5007071;28;90386;-87
2023/04/19 07:39:12;;;;;;;9.65;5.88;;;21.00;62.00;;;;;;4992534;28;89815;-87
2023/04/19 07:41:37;;;;;;;11.40;6.93;;;21.00;62.00;;;;;;4989703;28;86877;-90
2023/04/19 07:44:03;;;;;;;13.60;6.45;;;21.00;62.00;;;;;;4990849;28;87424;-86
2023/04/19 07:46:29;;;;;;;13.25;6.60;;;21.00;61.70;;;;;;4988205;28;89509;-85
2023/04/19 07:48:55;;;;;;;9.38;5.75;;;21.00;61.90;;;;;;4989329;28;88513;-86
2023/04/19 07:51:22;;;;;;;11.70;5.90;;;21.00;61.80;;;;;;4991208;28;87057;-86
2023/04/19 07:53:49;;;;;;;11.30;6.22;;;20.90;62.00;;;;;;4991409;28;87456;-86
2023/04/19 07:56:14;;;;;;;10.45;6.07;;;20.90;62.20;;;;;;4990773;28;89240;-86
2023/04/19 07:58:40;;;;;;;10.73;6.65;;;20.90;62.10;;;;;;4989686;28;87507;-86
2023/04/19 08:01:06;;;;;;;10.90;6.55;;;20.90;62.10;;;;;;4989780;28;86840;-87
2023/04/19 08:03:35;;;;;;;10.80;6.25;;;20.90;62.20;;;;;;4990394;28;87414;-86
2023/04/19 08:06:07;;;;;;;11.68;5.95;;;20.90;62.10;;;;;;4989958;28;90360;-85
2023/04/19 08:08:36;;;;;;;13.57;6.40;;;21.00;62.40;;;;;;4988819;28;87800;-85
2023/04/19 08:11:02;;;;;;;11.85;6.75;;;21.00;62.30;;;;;;4991187;28;88191;-85
2023/04/19 08:13:28;;;;;;;11.27;6.50;;;21.10;62.20;;;;;;5006085;28;91020;-86
2023/04/19 08:15:54;;;;;;;20.08;6.85;;;21.10;61.80;;;;;;4987012;28;88540;-88
2023/04/19 08:18:19;;;;;;;13.50;6.85;;;21.20;61.40;;;;;;4989466;28;88005;-85
2023/04/19 08:20:48;;;;;;;12.25;6.40;;;21.20;60.90;;;;;;4988381;28;87487;-86
2023/04/19 08:23:13;;;;;;;12.13;7.00;;;21.20;61.20;;;;;;4990257;28;86820;-86
2023/04/19 08:25:39;;;;;;;18.25;6.68;;;21.20;61.40;;;;;;4987781;28;90751;-86
2023/04/19 08:28:05;;;;;;;14.60;7.40;;;21.30;61.20;;;;;;4988762;28;87413;-87
2023/04/19 08:30:31;;;;;;;14.43;7.85;;;21.30;60.60;;;;;;4988854;28;88483;-87
2023/04/19 08:32:57;;;;;;;17.88;8.18;;;21.30;60.60;;;;;;4989531;28;87648;-86
2023/04/19 08:35:24;;;;;;;18.65;7.88;;;21.30;60.00;;;;;;4988388;28;88824;-88
2023/04/19 08:37:50;;;;;;;13.73;6.15;;;21.30;59.70;;;;;;5005531;28;91170;-87
2023/04/19 08:40:15;;;;;;;12.38;6.05;;;21.40;57.70;;;;;;5004138;28;87225;-85
2023/04/19 08:42:42;;;;;;;12.40;6.43;;;21.40;58.30;;;;;;4989054;28;87363;-86
2023/04/19 08:45:10;;;;;;;11.82;6.38;;;21.50;59.10;;;;;;4987067;28;92438;-88
2023/04/19 08:47:36;;;;;;;11.82;6.10;;;21.50;58.60;;;;;;4988849;28;87836;-87
2023/04/19 08:50:04;;;;;;;14.57;6.10;;;21.50;58.70;;;;;;4993459;28;87620;-88
2023/04/19 08:52:33;;;;;;;11.98;6.13;;;21.50;58.40;;;;;;4992616;28;86926;-86
2023/04/19 08:55:02;;;;;;;14.23;6.78;;;21.40;58.30;;;;;;4990871;28;88464;-87
2023/04/19 08:57:30;;;;;;;13.20;6.60;;;21.50;59.60;;;;;;4991436;28;88073;-87
2023/04/19 08:59:56;;;;;;;9.75;6.72;;;21.40;59.60;;;;;;4992331;28;88057;-88
2023/04/19 09:02:22;;;;;;;9.85;6.28;;;21.50;59.70;;;;;;4993323;28;87429;-87
2023/04/19 09:04:48;;;;;;;10.48;6.00;;;21.50;59.60;;;;;;4993610;28;87691;-87
2023/04/19 09:07:24;;;;;;;11.15;5.97;;;21.50;59.80;;;;;;4989316;28;87285;-87
2023/04/19 09:10:07;;;;;;;11.07;6.07;;;21.50;59.80;;;;;;4989221;28;87210;-88
2023/04/19 09:12:34;;;;;;;12.88;6.30;;;21.50;60.00;;;;;;4989458;28;87173;-88
2023/04/19 09:15:03;;;;;;;10.52;5.88;;;21.50;59.90;;;;;;5021621;28;92501;-87
2023/04/19 09:17:30;;;;;;;9.70;5.77;;;21.50;60.10;;;;;;5028762;28;88404;-88
2023/04/19 09:19:56;;;;;;;12.07;5.85;;;21.50;60.20;;;;;;5028382;28;87748;-87
2023/04/19 09:22:22;;;;;;;10.30;5.75;;;21.50;60.30;;;;;;5025404;28;87261;-86
2023/04/19 09:31:35;;;;;;;10.52;5.72;;;21.60;60.30;;;;;;5029054;28;87012;-87
2023/04/19 09:34:16;;;;;;;9.25;5.65;;;21.60;60.70;;;;;;4980916;28;89387;-88
2023/04/19 09:36:42;;;;;;;13.35;5.75;;;21.60;60.80;;;;;;4983647;28;92880;-88
2023/04/19 09:39:09;;;;;;;9.13;5.10;;;21.60;60.30;;;;;;4974401;28;90298;-88
2023/04/19 09:41:49;;;;;;;8.55;5.35;;;21.60;60.60;;;;;;4967414;28;86994;-86
2023/04/19 09:44:16;;;;;;;10.93;5.97;;;21.70;60.50;;;;;;4980638;28;86768;-86
2023/04/19 09:46:44;;;;;;;11.43;5.72;;;21.60;60.70;;;;;;4970594;28;88211;-85
2023/04/19 09:49:12;;;;;;;9.93;5.88;;;21.60;60.80;;;;;;4953130;28;90523;-87
2023/04/19 09:51:44;;;;;;;9.00;5.72;;;21.60;60.90;;;;;;4971258;28;87826;-86
2023/04/19 09:54:10;;;;;;;8.52;5.38;;;21.70;60.90;;;;;;4969088;28;87872;-87
2023/04/19 09:56:37;;;;;;;11.55;6.60;;;21.60;61.20;;;;;;4968143;28;88583;-86
2023/04/19 09:59:06;;;;;;;10.18;5.70;;;21.70;61.20;;;;;;4969449;28;91614;-86
2023/04/19 10:01:34;;;;;;;;;;;21.70;61.30;;;;;;4969959;28;87733;-86
2023/04/19 10:04:03;;;;;;;11.05;5.38;;;21.60;61.20;;;;;;4973589;28;86935;-87
2023/04/19 10:06:30;;;;;;;10.00;5.50;;;21.70;62.30;;;;;;4991710;28;87175;-86
2023/04/19 10:09:01;;;;;;;8.55;5.65;;;21.70;61.50;;;;;;5006066;28;91470;-85
2023/04/19 10:11:38;;;;;;;9.85;5.57;;;21.60;61.60;;;;;;4991422;28;87517;-85
2023/04/19 10:14:09;;;;;;;11.45;5.85;;;21.70;61.80;;;;;;4991497;28;87293;-85
2023/04/19 10:16:37;;;;;;;11.60;5.93;;;21.80;61.90;;;;;;4989835;28;91288;-86
2023/04/19 10:19:15;;;;;;;10.23;5.55;;;21.80;61.80;;;;;;5006333;28;92165;-85
2023/04/19 10:21:42;;;;;;;8.65;5.18;;;21.80;61.60;;;;;;4993872;28;87286;-86
2023/04/19 10:24:09;;;;;;;9.02;5.05;;;21.80;61.70;;;;;;4995237;28;87007;-86
2023/04/19 10:27:13;;;;;;;10.90;4.82;;;21.80;61.70;;;;;;4988298;28;90156;-85
2023/04/19 10:29:59;;;;;;;11.25;6.30;;;21.90;61.10;;;;;;4991082;28;89714;-87
2023/04/19 10:32:50;;;;;;;11.75;5.13;;;21.90;61.20;;;;;;4990592;28;87317;-87
2023/04/19 10:35:36;;;;;;;13.73;5.32;;;22.00;61.50;;;;;;4991944;28;87409;-86
2023/04/19 10:38:05;;;;;;;9.23;5.80;;;22.00;61.70;;;;;;4988899;28;90787;-86
2023/04/19 10:40:49;;;;;;;12.10;5.30;;;22.00;61.80;;;;;;4990000;28;87479;-86
2023/04/19 10:43:16;;;;;;;12.15;5.90;;;22.00;61.80;;;;;;4989799;28;88290;-87
2023/04/19 10:45:42;;;;;;;10.73;5.05;;;22.00;62.10;;;;;;4993536;28;87409;-87
2023/04/19 10:48:34;;;;;;;11.82;5.78;;;22.00;62.10;;;;;;5006837;28;91437;-87
2023/04/19 10:51:02;;;;;;;11.27;5.25;;;22.00;62.10;;;;;;4990586;28;90613;-86
2023/04/19 10:53:52;;;;;;;10.05;5.25;;;22.00;61.80;;;;;;4990182;28;87264;-88
2023/04/19 10:56:21;;;;;;;10.13;5.65;;;22.00;62.00;;;;;;4991517;28;87539;-88
2023/04/19 10:59:09;;;;;;;6.67;4.87;;;22.00;62.30;;;;;;4990164;28;88532;-87
2023/04/19 11:01:51;;;;;;;10.25;5.53;;;22.00;62.30;;;;;;4993207;28;88400;-86
2023/04/19 11:04:47;;;;;;;12.57;6.15;;;22.00;62.60;;;;;;5006649;28;87015;-85
2023/04/19 11:07:13;;;;;;;10.10;5.22;;;22.00;62.70;;;;;;4989227;28;87188;-86
2023/04/19 11:09:43;;;;;;;12.80;5.85;;;22.00;62.90;;;;;;4992104;28;90245;-86
2023/04/19 11:12:19;;;;;;;13.00;6.03;;;21.90;62.20;;;;;;4989994;28;88734;-86
2023/04/19 11:14:53;;;;;;;16.55;6.10;;;21.90;62.50;;;;;;5005555;28;87245;-84
2023/04/19 11:17:27;;;;;;;14.35;5.32;;;21.90;62.30;;;;;;4990584;28;87400;-85
2023/04/19 11:20:02;;;;;;;8.23;5.10;;;21.90;62.10;;;;;;4990144;28;88630;-88
2023/04/19 11:23:01;;;;;;;9.20;5.10;;;21.90;62.00;;;;;;4990068;28;88270;-88
2023/04/19 11:25:30;;;;;;;13.25;5.43;;;21.80;60.50;;;;;;4989229;28;86956;-86
2023/04/19 11:27:56;;;;;;;9.37;5.30;;;21.80;60.90;;;;;;4992190;28;88377;-87
2023/04/19 11:30:29;;;;;;;7.68;4.63;;;21.70;60.30;;;;;;4991298;28;88335;-87
2023/04/19 11:32:55;;;;;;;13.20;5.60;;;21.70;60.60;;;;;;4991562;28;87929;-85
2023/04/19 11:35:26;;;;;;;12.32;5.68;;;21.60;61.60;;;;;;4989528;28;87940;-86
2023/04/19 11:37:54;;;;;;;10.85;5.43;;;21.70;60.80;;;;;;4991156;28;87375;-87
2023/04/19 11:40:21;;;;;;;9.57;5.13;;;21.70;60.30;;;;;;4992541;28;88590;-86
2023/04/19 11:42:59;;;;;;;10.07;5.57;;;21.60;60.70;;;;;;4988175;28;90110;-86
2023/04/19 11:45:37;;;;;;;8.88;5.80;;;21.60;60.90;;;;;;4990240;28;87225;-86
2023/04/19 11:48:06;;;;;;;9.40;4.95;;;21.60;61.00;;;;;;4991567;28;87505;-86
2023/04/19 11:50:41;;;;;;;11.45;5.45;;;21.60;60.90;;;;;;4988385;28;89541;-86
2023/04/19 11:53:21;;;;;;;14.43;5.53;;;21.50;60.60;;;;;;4988962;28;86653;-86
2023/04/19 11:55:52;;;;;;;8.73;5.28;;;21.50;60.60;;;;;;4991241;28;87012;-86
2023/04/19 11:58:44;;;;;;;11.30;5.35;;;21.50;60.60;;;;;;4988980;28;87550;-85
2023/04/19 12:01:20;;;;;;;7.43;5.38;;;21.50;60.70;;;;;;4987012;28;92402;-86
2023/04/19 12:03:48;;;;;;;10.30;5.28;;;21.40;61.00;;;;;;4990637;28;88924;-87
2023/04/19 12:06:22;;;;;;;11.38;5.10;;;21.50;60.50;;;;;;4989277;28;86898;-86
2023/04/19 12:08:49;;;;;;;9.43;4.82;;;21.50;60.50;;;;;;4989877;28;87092;-86
2023/04/19 12:11:17;;;;;;;8.73;4.82;;;21.50;60.50;;;;;;4989502;28;87658;-87
2023/04/19 12:13:43;;;;;;;8.20;4.93;;;21.50;60.80;;;;;;5005701;28;90369;-87
2023/04/19 12:16:10;;;;;;;7.07;4.70;;;21.50;60.70;;;;;;4990518;28;87321;-87
2023/04/19 12:18:44;;;;;;;9.75;4.70;;;21.50;60.60;;;;;;5005693;28;88301;-87
2023/04/19 12:21:11;;;;;;;12.27;4.60;;;21.50;60.50;;;;;;4990573;28;88510;-88
2023/04/19 12:23:37;;;;;;;6.63;4.40;;;21.40;60.70;;;;;;4988140;28;90557;-87
2023/04/19 12:26:06;;;;;;;7.20;4.45;;;21.40;60.70;;;;;;4990144;28;88357;-87
2023/04/19 12:28:32;;;;;;;7.97;4.60;;;21.40;61.70;;;;;;4988503;28;90559;-86
2023/04/19 12:30:58;;;;;;;9.45;4.53;;;21.40;60.90;;;;;;4990318;28;88761;-86
2023/04/19 12:33:23;;;;;;;9.93;4.78;;;21.40;61.00;;;;;;4986203;28;91158;-87
2023/04/19 12:35:49;;;;;;;7.03;3.90;;;21.40;61.00;;;;;;5005041;28;87084;-87
2023/04/19 12:38:15;;;;;;;7.38;4.43;;;21.40;61.00;;;;;;4979731;28;87599;-87
2023/04/19 12:40:40;;;;;;;8.02;4.70;;;21.40;61.00;;;;;;5004234;28;90467;-87
2023/04/19 12:43:09;;;;;;;8.70;4.63;;;21.30;61.00;;;;;;4989398;28;87808;-87
2023/04/19 12:45:34;;;;;;;7.57;4.38;;;21.50;60.10;;;;;;4990544;28;87532;-87
2023/04/19 12:48:00;;;;;;;9.18;4.60;;;21.40;60.40;;;;;;4990585;28;87073;-87
2023/04/19 12:50:25;;;;;;;8.55;4.43;;;21.40;60.60;;;;;;4988057;28;89030;-87
2023/04/19 12:52:52;;;;;;;12.77;4.95;;;21.40;60.10;;;;;;5004133;28;89926;-86
2023/04/19 12:55:18;;;;;;;8.05;4.43;;;21.50;60.30;;;;;;4989253;28;87461;-87
2023/04/19 12:57:44;;;;;;;9.25;4.50;;;21.50;60.20;;;;;;5005694;28;87824;-86
2023/04/19 13:00:10;;;;;;;8.82;4.60;;;21.50;60.20;;;;;;4987442;28;87528;-89
2023/04/19 13:02:36;;;;;;;9.10;4.55;;;21.60;60.40;;;;;;4984557;28;88331;-90
2023/04/19 13:05:03;;;;;;;6.90;3.80;;;21.50;60.40;;;;;;4986521;28;87278;-89